createdAt,value
2019-03-16T00:00:40.634Z,72.16
2019-03-16T00:01:16.066Z,72.12
2019-03-16T00:01:57.035Z,72.15
2019-03-16T00:02:28.647Z,72.25
2019-03-16T00:03:04.340Z,72.48
2019-03-16T00:03:40.130Z,72.67
2019-03-16T00:04:15.878Z,72.55
2019-03-16T00:04:51.299Z,72.48
2019-03-16T00:05:26.803Z,72.37
2019-03-16T00:06:02.663Z,72.29
2019-03-16T00:06:38.790Z,72.24
2019-03-16T00:07:14.266Z,72.48
2019-03-16T00:07:49.676Z,72.39
2019-03-16T00:08:25.397Z,72.32
2019-03-16T00:09:00.821Z,72.24
2019-03-16T00:09:36.250Z,72.20
2019-03-16T00:10:12.010Z,72.26
2019-03-16T00:10:47.749Z,72.11
2019-03-16T00:11:23.528Z,71.84
2019-03-16T00:11:58.989Z,72.01
2019-03-16T00:12:34.573Z,72.12
2019-03-16T00:13:10.299Z,72.24
2019-03-16T00:13:45.817Z,72.34
2019-03-16T00:14:21.285Z,72.25
2019-03-16T00:14:57.133Z,72.11
2019-03-16T00:15:32.930Z,71.83
2019-03-16T00:16:08.453Z,72.05
2019-03-16T00:16:43.874Z,72.29
2019-03-16T00:17:23.084Z,72.52
2019-03-16T00:17:56.521Z,72.35
2019-03-16T00:18:32.320Z,72.42
2019-03-16T00:19:07.834Z,72.39
2019-03-16T00:19:43.593Z,72.19
2019-03-16T00:20:19.043Z,72.39
2019-03-16T00:20:54.834Z,72.01
2019-03-16T00:21:30.260Z,72.01
2019-03-16T00:22:06.430Z,72.16
2019-03-16T00:22:45.436Z,72.14
2019-03-16T00:23:20.851Z,72.09
2019-03-16T00:23:56.414Z,72.13
2019-03-16T00:24:31.841Z,72.27
2019-03-16T00:25:07.579Z,72.31
2019-03-16T00:25:43.822Z,72.28
2019-03-16T00:26:19.983Z,72.20
2019-03-16T00:26:55.761Z,72.02
2019-03-16T00:27:31.307Z,72.23
2019-03-16T00:28:06.692Z,72.08
2019-03-16T00:28:42.117Z,71.83
2019-03-16T00:29:17.882Z,71.83
2019-03-16T00:29:54.315Z,71.93
2019-03-16T00:30:30.063Z,71.71
2019-03-16T00:31:05.479Z,71.71
2019-03-16T00:31:41.267Z,71.85
2019-03-16T00:32:17.058Z,71.98
2019-03-16T00:32:52.510Z,71.98
2019-03-16T00:33:28.257Z,71.82
2019-03-16T00:34:03.681Z,71.86
2019-03-16T00:34:39.084Z,71.83
2019-03-16T00:35:14.527Z,71.51
2019-03-16T00:35:50.037Z,71.58
2019-03-16T00:36:25.908Z,71.53
2019-03-16T00:37:01.316Z,71.55
2019-03-16T00:37:36.824Z,71.55
2019-03-16T00:38:12.289Z,71.56
2019-03-16T00:38:47.742Z,71.63
2019-03-16T00:39:23.523Z,71.71
2019-03-16T00:39:58.961Z,71.78
2019-03-16T00:40:34.695Z,71.67
2019-03-16T00:41:10.424Z,71.77
2019-03-16T00:41:45.868Z,71.90
2019-03-16T00:42:21.604Z,72.02
2019-03-16T00:42:57.655Z,71.93
2019-03-16T00:43:33.420Z,71.83
2019-03-16T00:44:09.146Z,71.83
2019-03-16T00:44:44.605Z,71.72
2019-03-16T00:45:20.184Z,71.63
2019-03-16T00:45:57.003Z,71.61
2019-03-16T00:46:32.697Z,71.40
2019-03-16T00:47:08.120Z,71.23
2019-03-16T00:47:43.587Z,71.28
2019-03-16T00:48:19.041Z,71.21
2019-03-16T00:48:54.478Z,71.27
2019-03-16T00:49:30.352Z,71.44
2019-03-16T00:50:06.742Z,71.45
2019-03-16T00:50:42.186Z,71.29
2019-03-16T00:51:18.041Z,71.28
2019-03-16T00:51:53.483Z,71.34
2019-03-16T00:52:28.898Z,71.25
2019-03-16T00:53:05.056Z,71.12
2019-03-16T00:53:40.614Z,71.00
2019-03-16T00:54:16.455Z,71.07
2019-03-16T00:54:52.200Z,71.09
2019-03-16T00:55:27.638Z,71.19
2019-03-16T00:56:03.347Z,71.23
2019-03-16T00:56:38.791Z,71.14
2019-03-16T00:57:14.260Z,71.06
2019-03-16T00:57:49.971Z,71.16
2019-03-16T00:58:25.392Z,71.23
2019-03-16T00:59:01.165Z,71.12
2019-03-16T00:59:37.292Z,71.08
2019-03-16T01:00:13.097Z,71.01
2019-03-16T01:00:48.564Z,71.02
2019-03-16T01:01:24.092Z,71.01
2019-03-16T01:01:59.496Z,71.12
2019-03-16T01:02:34.922Z,71.14
2019-03-16T01:03:10.396Z,71.12
2019-03-16T01:03:46.141Z,71.21
2019-03-16T01:04:21.599Z,71.10
2019-03-16T01:04:57.017Z,71.28
2019-03-16T01:05:32.431Z,71.08
2019-03-16T01:06:07.853Z,71.19
2019-03-16T01:06:43.275Z,71.24
2019-03-16T01:07:18.723Z,71.17
2019-03-16T01:07:54.143Z,70.63
2019-03-16T01:08:29.692Z,70.85
2019-03-16T01:09:07.575Z,70.98
2019-03-16T01:09:43.698Z,70.87
2019-03-16T01:10:19.773Z,70.86
2019-03-16T01:10:55.533Z,70.84
2019-03-16T01:11:31.274Z,70.81
2019-03-16T01:12:06.693Z,70.74
2019-03-16T01:12:42.491Z,70.55
2019-03-16T01:13:18.108Z,70.75
2019-03-16T01:13:53.530Z,70.53
2019-03-16T01:14:28.969Z,70.47
2019-03-16T01:15:05.006Z,70.48
2019-03-16T01:15:40.768Z,70.52
2019-03-16T01:16:16.211Z,70.52
2019-03-16T01:16:51.632Z,70.14
2019-03-16T01:17:27.423Z,70.10
2019-03-16T01:18:02.844Z,70.13
2019-03-16T01:18:38.662Z,70.21
2019-03-16T01:19:14.119Z,70.11
2019-03-16T01:19:50.537Z,70.16
2019-03-16T01:20:25.972Z,70.10
2019-03-16T01:21:01.822Z,70.21
2019-03-16T01:21:37.239Z,70.46
2019-03-16T01:22:12.675Z,70.32
2019-03-16T01:22:48.753Z,70.32
2019-03-16T01:23:24.218Z,70.20
2019-03-16T01:23:59.957Z,70.35
2019-03-16T01:24:35.373Z,70.28
2019-03-16T01:25:10.994Z,70.11
2019-03-16T01:25:46.475Z,69.95
2019-03-16T01:26:22.289Z,70.08
2019-03-16T01:26:57.980Z,70.06
2019-03-16T01:27:33.726Z,69.99
2019-03-16T01:28:09.487Z,70.15
2019-03-16T01:28:44.920Z,70.23
2019-03-16T01:29:20.588Z,70.26
2019-03-16T01:29:56.688Z,70.26
2019-03-16T01:30:32.130Z,70.15
2019-03-16T01:31:07.592Z,70.22
2019-03-16T01:31:43.325Z,70.13
2019-03-16T01:32:19.265Z,70.30
2019-03-16T01:32:55.117Z,70.79
2019-03-16T01:33:30.558Z,70.54
2019-03-16T01:34:06.034Z,70.69
2019-03-16T01:34:44.211Z,71.22
2019-03-16T01:35:19.466Z,71.22
2019-03-16T01:35:55.209Z,71.06
2019-03-16T01:36:31.085Z,71.13
2019-03-16T01:37:06.504Z,70.85
2019-03-16T01:37:41.938Z,70.81
2019-03-16T01:38:17.380Z,70.54
2019-03-16T01:38:52.919Z,70.51
2019-03-16T01:39:28.341Z,70.46
2019-03-16T01:40:04.359Z,70.59
2019-03-16T01:40:39.795Z,70.44
2019-03-16T01:41:15.220Z,70.74
2019-03-16T01:41:50.715Z,70.38
2019-03-16T01:42:26.245Z,70.42
2019-03-16T01:43:01.700Z,70.55
2019-03-16T01:43:37.906Z,70.68
2019-03-16T01:44:13.685Z,70.90
2019-03-16T01:44:49.915Z,70.83
2019-03-16T01:45:25.346Z,70.48
2019-03-16T01:46:01.008Z,70.49
2019-03-16T01:46:36.416Z,70.36
2019-03-16T01:47:11.851Z,70.32
2019-03-16T01:47:47.331Z,70.41
2019-03-16T01:48:22.774Z,70.33
2019-03-16T01:48:58.226Z,70.60
2019-03-16T01:49:33.902Z,70.80
2019-03-16T01:50:09.349Z,71.08
2019-03-16T01:50:44.779Z,71.41
2019-03-16T01:51:20.642Z,71.42
2019-03-16T01:51:56.048Z,71.27
2019-03-16T01:52:31.485Z,71.07
2019-03-16T01:53:07.201Z,71.08
2019-03-16T01:53:42.652Z,70.89
2019-03-16T01:54:18.512Z,70.76
2019-03-16T01:54:54.342Z,70.53
2019-03-16T01:55:30.081Z,70.43
2019-03-16T01:56:05.502Z,70.52
2019-03-16T01:56:41.323Z,70.68
2019-03-16T01:57:16.794Z,70.54
2019-03-16T01:57:52.566Z,70.75
2019-03-16T01:58:28.654Z,70.83
2019-03-16T01:59:04.124Z,70.84
2019-03-16T01:59:39.559Z,70.75
2019-03-16T02:00:15.991Z,70.44
2019-03-16T02:00:51.437Z,70.60
2019-03-16T02:01:26.848Z,70.73
2019-03-16T02:02:02.595Z,70.66
2019-03-16T02:02:38.026Z,70.64
2019-03-16T02:03:14.402Z,70.41
2019-03-16T02:03:49.999Z,70.39
2019-03-16T02:04:25.445Z,70.42
2019-03-16T02:05:00.976Z,70.30
2019-03-16T02:05:36.407Z,70.27
2019-03-16T02:06:11.932Z,70.51
2019-03-16T02:06:47.408Z,70.64
2019-03-16T02:07:22.829Z,70.42
2019-03-16T02:07:58.248Z,70.26
2019-03-16T02:08:33.663Z,70.44
2019-03-16T02:09:09.498Z,70.65
2019-03-16T02:09:45.037Z,70.53
2019-03-16T02:10:20.844Z,70.64
2019-03-16T02:10:56.331Z,70.59
2019-03-16T02:11:31.755Z,70.28
2019-03-16T02:12:07.542Z,70.60
2019-03-16T02:12:43.281Z,70.58
2019-03-16T02:13:18.847Z,70.41
2019-03-16T02:13:54.667Z,70.40
2019-03-16T02:14:30.525Z,70.60
2019-03-16T02:15:06.766Z,70.44
2019-03-16T02:15:42.190Z,70.54
2019-03-16T02:16:18.080Z,70.81
2019-03-16T02:16:53.932Z,70.54
2019-03-16T02:17:29.361Z,70.53
2019-03-16T02:18:04.901Z,70.80
2019-03-16T02:18:40.321Z,70.79
2019-03-16T02:19:16.518Z,70.89
2019-03-16T02:19:52.392Z,71.01
2019-03-16T02:20:28.110Z,70.79
2019-03-16T02:21:04.468Z,70.61
2019-03-16T02:21:40.067Z,70.68
2019-03-16T02:22:15.664Z,70.61
2019-03-16T02:22:51.107Z,70.63
2019-03-16T02:23:26.547Z,70.54
2019-03-16T02:24:02.046Z,70.48
2019-03-16T02:24:37.503Z,70.39
2019-03-16T02:25:12.933Z,70.42
2019-03-16T02:25:48.770Z,70.43
2019-03-16T02:26:24.208Z,70.16
2019-03-16T02:26:59.637Z,69.97
2019-03-16T02:27:35.063Z,70.34
2019-03-16T02:28:10.498Z,70.36
2019-03-16T02:28:45.973Z,70.44
2019-03-16T02:29:21.765Z,70.17
2019-03-16T02:29:57.280Z,70.27
2019-03-16T02:30:32.718Z,70.13
2019-03-16T02:31:08.161Z,70.32
2019-03-16T02:31:43.699Z,70.11
2019-03-16T02:32:19.481Z,70.20
2019-03-16T02:33:11.167Z,70.09
2019-03-16T02:33:32.085Z,70.18
2019-03-16T02:34:07.508Z,70.32
2019-03-16T02:34:43.235Z,70.27
2019-03-16T02:35:19.146Z,70.41
2019-03-16T02:35:54.621Z,70.69
2019-03-16T02:36:30.047Z,70.61
2019-03-16T02:37:05.462Z,70.24
2019-03-16T02:37:41.536Z,70.28
2019-03-16T02:38:17.412Z,70.46
2019-03-16T02:38:52.861Z,70.34
2019-03-16T02:39:29.301Z,70.42
2019-03-16T02:40:04.888Z,70.33
2019-03-16T02:40:40.323Z,70.24
2019-03-16T02:41:16.086Z,70.45
2019-03-16T02:41:51.621Z,70.52
2019-03-16T02:42:27.152Z,70.39
2019-03-16T02:43:02.574Z,70.56
2019-03-16T02:43:38.094Z,70.25
2019-03-16T02:44:13.514Z,70.46
2019-03-16T02:44:49.389Z,70.09
2019-03-16T02:45:25.151Z,70.61
2019-03-16T02:46:00.565Z,70.44
2019-03-16T02:46:36.623Z,70.26
2019-03-16T02:47:12.148Z,70.46
2019-03-16T02:47:47.908Z,70.16
2019-03-16T02:48:23.772Z,70.36
2019-03-16T02:48:59.215Z,70.34
2019-03-16T02:49:34.647Z,69.98
2019-03-16T02:50:10.411Z,70.06
2019-03-16T02:50:45.857Z,70.14
2019-03-16T02:51:21.370Z,70.40
2019-03-16T02:51:56.992Z,70.27
2019-03-16T02:52:32.412Z,70.51
2019-03-16T02:53:07.855Z,70.28
2019-03-16T02:53:43.564Z,70.18
2019-03-16T02:54:19.047Z,70.18
2019-03-16T02:54:54.490Z,70.25
2019-03-16T02:55:30.328Z,70.32
2019-03-16T02:56:05.753Z,70.22
2019-03-16T02:56:41.276Z,70.16
2019-03-16T02:57:17.250Z,69.94
2019-03-16T02:57:53.085Z,70.05
2019-03-16T02:58:29.522Z,70.18
2019-03-16T02:59:04.977Z,70.31
2019-03-16T02:59:40.415Z,70.20
2019-03-16T03:00:19.235Z,70.16
2019-03-16T03:00:55.065Z,70.13
2019-03-16T03:01:30.496Z,70.21
2019-03-16T03:02:05.926Z,70.44
2019-03-16T03:02:41.405Z,70.66
2019-03-16T03:03:29.240Z,70.56
2019-03-16T03:03:54.734Z,70.68
2019-03-16T03:04:30.267Z,70.35
2019-03-16T03:05:06.785Z,70.43
2019-03-16T03:05:42.247Z,70.42
2019-03-16T03:06:17.770Z,70.16
2019-03-16T03:06:53.157Z,70.16
2019-03-16T03:07:28.605Z,70.24
2019-03-16T03:08:04.441Z,70.45
2019-03-16T03:08:40.199Z,70.33
2019-03-16T03:09:15.720Z,70.19
2019-03-16T03:09:51.138Z,69.94
2019-03-16T03:10:26.933Z,69.96
2019-03-16T03:11:02.381Z,69.90
2019-03-16T03:11:37.853Z,69.76
2019-03-16T03:12:13.291Z,70.02
2019-03-16T03:12:48.750Z,69.91
2019-03-16T03:13:24.177Z,69.83
2019-03-16T03:13:59.602Z,69.87
2019-03-16T03:14:35.317Z,70.01
2019-03-16T03:15:10.814Z,70.21
2019-03-16T03:15:46.241Z,70.07
2019-03-16T03:16:21.679Z,70.13
2019-03-16T03:16:57.230Z,70.17
2019-03-16T03:17:32.631Z,70.25
2019-03-16T03:18:08.082Z,70.02
2019-03-16T03:18:43.815Z,69.79
2019-03-16T03:19:19.514Z,69.75
2019-03-16T03:19:54.944Z,69.79
2019-03-16T03:20:30.808Z,69.92
2019-03-16T03:21:06.241Z,69.87
2019-03-16T03:21:41.672Z,70.03
2019-03-16T03:22:17.142Z,69.74
2019-03-16T03:22:52.568Z,69.64
2019-03-16T03:23:28.026Z,69.60
2019-03-16T03:24:03.792Z,69.52
2019-03-16T03:24:43.883Z,69.51
2019-03-16T03:25:16.823Z,69.46
2019-03-16T03:25:52.251Z,69.61
2019-03-16T03:26:27.679Z,69.35
2019-03-16T03:27:03.202Z,69.37
2019-03-16T03:27:39.086Z,69.37
2019-03-16T03:28:14.523Z,69.47
2019-03-16T03:28:50.394Z,69.59
2019-03-16T03:29:25.867Z,69.37
2019-03-16T03:30:01.257Z,69.12
2019-03-16T03:30:37.365Z,69.51
2019-03-16T03:31:12.798Z,69.46
2019-03-16T03:31:48.276Z,69.25
2019-03-16T03:32:23.704Z,69.32
2019-03-16T03:32:59.127Z,69.47
2019-03-16T03:33:57.533Z,69.27
2019-03-16T03:34:12.041Z,69.22
2019-03-16T03:34:47.617Z,69.28
2019-03-16T03:35:28.784Z,69.29
2019-03-16T03:36:00.161Z,69.31
2019-03-16T03:36:35.603Z,69.34
2019-03-16T03:37:11.033Z,69.41
2019-03-16T03:37:46.553Z,69.39
2019-03-16T03:38:22.587Z,69.53
2019-03-16T03:38:58.010Z,69.37
2019-03-16T03:39:34.273Z,69.13
2019-03-16T03:40:10.175Z,69.11
2019-03-16T03:40:45.881Z,69.24
2019-03-16T03:41:22.327Z,69.18
2019-03-16T03:41:57.873Z,69.19
2019-03-16T03:42:33.293Z,69.03
2019-03-16T03:43:08.756Z,69.01
2019-03-16T03:43:44.200Z,69.09
2019-03-16T03:44:19.931Z,69.31
2019-03-16T03:44:55.382Z,69.28
2019-03-16T03:45:30.823Z,69.21
2019-03-16T03:46:06.333Z,69.47
2019-03-16T03:46:41.739Z,69.46
2019-03-16T03:47:19.447Z,69.20
2019-03-16T03:47:55.405Z,69.36
2019-03-16T03:48:30.877Z,69.46
2019-03-16T03:49:06.311Z,69.78
2019-03-16T03:49:41.851Z,69.99
2019-03-16T03:50:18.935Z,69.93
2019-03-16T03:50:54.909Z,69.75
2019-03-16T03:51:30.611Z,69.56
2019-03-16T03:52:06.229Z,69.14
2019-03-16T03:52:42.059Z,69.18
2019-03-16T03:53:17.536Z,69.35
2019-03-16T03:53:52.992Z,69.19
2019-03-16T03:54:28.432Z,69.37
2019-03-16T03:55:04.382Z,69.03
2019-03-16T03:55:40.154Z,69.24
2019-03-16T03:56:15.689Z,69.39
2019-03-16T03:56:51.142Z,69.10
2019-03-16T03:57:26.802Z,69.10
2019-03-16T03:58:02.632Z,68.81
2019-03-16T03:58:38.039Z,69.14
2019-03-16T03:59:13.677Z,69.38
2019-03-16T03:59:49.269Z,69.38
2019-03-16T04:00:24.722Z,69.56
2019-03-16T04:01:00.453Z,69.66
2019-03-16T04:01:36.206Z,69.84
2019-03-16T04:02:12.055Z,69.80
2019-03-16T04:02:47.727Z,68.98
2019-03-16T04:03:23.513Z,68.98
2019-03-16T04:04:14.177Z,69.49
2019-03-16T04:04:36.404Z,69.61
2019-03-16T04:05:12.155Z,70.17
2019-03-16T04:05:47.613Z,70.17
2019-03-16T04:06:23.944Z,70.33
2019-03-16T04:06:59.945Z,70.96
2019-03-16T04:07:35.648Z,71.99
2019-03-16T04:08:11.412Z,72.47
2019-03-16T04:08:47.572Z,72.66
2019-03-16T04:09:23.080Z,72.82
2019-03-16T04:09:58.581Z,73.59
2019-03-16T04:10:34.652Z,74.08
2019-03-16T04:11:10.432Z,74.49
2019-03-16T04:11:45.873Z,74.07
2019-03-16T04:12:21.349Z,74.58
2019-03-16T04:12:56.775Z,75.23
2019-03-16T04:13:32.244Z,75.55
2019-03-16T04:14:08.068Z,75.66
2019-03-16T04:14:43.903Z,75.74
2019-03-16T04:15:19.830Z,75.78
2019-03-16T04:15:55.630Z,76.27
2019-03-16T04:16:31.083Z,76.70
2019-03-16T04:17:06.506Z,76.90
2019-03-16T04:17:42.361Z,76.97
2019-03-16T04:18:17.814Z,77.20
2019-03-16T04:18:53.262Z,77.24
2019-03-16T04:19:28.714Z,77.37
2019-03-16T04:20:04.499Z,77.41
2019-03-16T04:20:39.920Z,77.38
2019-03-16T04:21:15.374Z,77.25
2019-03-16T04:21:51.195Z,76.98
2019-03-16T04:22:26.927Z,76.73
2019-03-16T04:23:02.355Z,76.66
2019-03-16T04:23:37.872Z,76.31
2019-03-16T04:24:13.306Z,76.27
2019-03-16T04:24:48.909Z,75.21
2019-03-16T04:25:24.341Z,74.70
2019-03-16T04:26:00.179Z,73.50
2019-03-16T04:26:35.890Z,72.54
2019-03-16T04:27:16.235Z,71.60
2019-03-16T04:27:48.848Z,70.98
2019-03-16T04:28:24.526Z,70.69
2019-03-16T04:29:00.043Z,70.27
2019-03-16T04:29:35.498Z,70.07
2019-03-16T04:30:11.517Z,69.75
2019-03-16T04:30:46.999Z,69.63
2019-03-16T04:31:22.731Z,69.60
2019-03-16T04:31:58.225Z,68.92
2019-03-16T04:32:33.647Z,68.60
2019-03-16T04:33:09.108Z,68.82
2019-03-16T04:33:44.530Z,68.82
2019-03-16T04:34:29.361Z,68.92
2019-03-16T04:34:57.517Z,68.87
2019-03-16T04:35:32.922Z,68.72
2019-03-16T04:36:08.682Z,68.79
2019-03-16T04:36:44.070Z,68.66
2019-03-16T04:37:19.582Z,68.79
2019-03-16T04:37:55.017Z,68.49
2019-03-16T04:38:30.441Z,68.40
2019-03-16T04:39:07.439Z,68.54
2019-03-16T04:39:42.967Z,68.48
2019-03-16T04:40:18.911Z,68.35
2019-03-16T04:40:54.334Z,68.42
2019-03-16T04:41:29.745Z,68.38
2019-03-16T04:42:05.205Z,68.22
2019-03-16T04:42:41.433Z,68.40
2019-03-16T04:43:16.982Z,68.35
2019-03-16T04:43:52.436Z,68.42
2019-03-16T04:44:27.864Z,68.28
2019-03-16T04:45:03.659Z,68.15
2019-03-16T04:45:39.091Z,68.32
2019-03-16T04:46:14.510Z,68.24
2019-03-16T04:46:49.949Z,68.34
2019-03-16T04:47:25.678Z,68.30
2019-03-16T04:48:01.102Z,68.41
2019-03-16T04:48:36.613Z,68.06
2019-03-16T04:49:12.285Z,68.09
2019-03-16T04:49:47.777Z,68.17
2019-03-16T04:50:23.566Z,68.17
2019-03-16T04:50:58.999Z,67.97
2019-03-16T04:51:34.425Z,67.84
2019-03-16T04:52:10.174Z,67.71
2019-03-16T04:52:45.929Z,67.63
2019-03-16T04:53:21.389Z,67.79
2019-03-16T04:53:57.259Z,68.04
2019-03-16T04:54:32.778Z,68.10
2019-03-16T04:55:09.035Z,67.78
2019-03-16T04:55:44.477Z,67.67
2019-03-16T04:56:20.318Z,67.86
2019-03-16T04:56:56.002Z,67.97
2019-03-16T04:57:31.412Z,67.84
2019-03-16T04:58:06.843Z,67.51
2019-03-16T04:58:42.345Z,67.51
2019-03-16T04:59:17.880Z,67.64
2019-03-16T04:59:53.753Z,67.45
2019-03-16T05:00:29.217Z,67.41
2019-03-16T05:01:05.378Z,67.69
2019-03-16T05:01:40.818Z,67.75
2019-03-16T05:02:17.021Z,67.68
2019-03-16T05:02:52.468Z,67.88
2019-03-16T05:03:28.642Z,68.06
2019-03-16T05:04:04.169Z,68.02
2019-03-16T05:04:42.657Z,68.18
2019-03-16T05:05:16.775Z,68.10
2019-03-16T05:05:52.837Z,67.88
2019-03-16T05:06:28.587Z,67.94
2019-03-16T05:07:04.010Z,67.60
2019-03-16T05:07:39.782Z,67.58
2019-03-16T05:08:15.655Z,67.38
2019-03-16T05:08:51.579Z,67.43
2019-03-16T05:09:27.356Z,67.47
2019-03-16T05:10:03.187Z,67.55
2019-03-16T05:10:38.613Z,67.55
2019-03-16T05:11:14.041Z,67.37
2019-03-16T05:11:49.501Z,67.47
2019-03-16T05:12:24.960Z,67.48
2019-03-16T05:13:00.532Z,67.53
2019-03-16T05:13:36.318Z,67.44
2019-03-16T05:14:12.112Z,67.56
2019-03-16T05:14:47.932Z,67.46
2019-03-16T05:15:23.725Z,67.62
2019-03-16T05:15:59.144Z,67.71
2019-03-16T05:16:34.882Z,67.42
2019-03-16T05:17:10.283Z,67.23
2019-03-16T05:17:46.049Z,67.23
2019-03-16T05:18:21.891Z,67.40
2019-03-16T05:18:58.039Z,67.49
2019-03-16T05:19:33.792Z,67.36
2019-03-16T05:20:09.851Z,67.53
2019-03-16T05:20:45.298Z,67.75
2019-03-16T05:21:20.777Z,67.78
2019-03-16T05:21:56.515Z,67.94
2019-03-16T05:22:32.251Z,67.71
2019-03-16T05:23:08.027Z,67.83
2019-03-16T05:23:43.729Z,67.86
2019-03-16T05:24:19.601Z,67.86
2019-03-16T05:24:55.024Z,67.85
2019-03-16T05:25:30.477Z,67.89
2019-03-16T05:26:05.927Z,67.80
2019-03-16T05:26:41.331Z,67.95
2019-03-16T05:27:16.891Z,67.71
2019-03-16T05:27:52.339Z,67.66
2019-03-16T05:28:28.116Z,67.90
2019-03-16T05:29:03.651Z,68.00
2019-03-16T05:29:39.414Z,67.89
2019-03-16T05:30:16.987Z,67.78
2019-03-16T05:30:52.429Z,67.89
2019-03-16T05:31:27.866Z,68.20
2019-03-16T05:32:03.376Z,68.41
2019-03-16T05:32:38.805Z,68.41
2019-03-16T05:33:14.488Z,68.58
2019-03-16T05:33:50.755Z,68.46
2019-03-16T05:34:26.451Z,68.47
2019-03-16T05:35:01.874Z,68.28
2019-03-16T05:35:37.316Z,68.34
2019-03-16T05:36:12.762Z,68.41
2019-03-16T05:36:48.621Z,68.34
2019-03-16T05:37:24.134Z,68.17
2019-03-16T05:37:59.646Z,68.04
2019-03-16T05:38:35.448Z,67.80
2019-03-16T05:39:11.569Z,67.59
2019-03-16T05:39:47.005Z,67.59
2019-03-16T05:40:22.473Z,67.97
2019-03-16T05:40:58.405Z,67.75
2019-03-16T05:41:33.830Z,67.89
2019-03-16T05:42:09.551Z,68.05
2019-03-16T05:42:45.393Z,68.05
2019-03-16T05:43:21.175Z,68.04
2019-03-16T05:43:56.597Z,68.02
2019-03-16T05:44:32.135Z,67.69
2019-03-16T05:45:08.180Z,67.69
2019-03-16T05:45:43.920Z,67.83
2019-03-16T05:46:19.386Z,67.85
2019-03-16T05:46:54.915Z,68.04
2019-03-16T05:47:30.744Z,67.91
2019-03-16T05:48:06.643Z,67.93
2019-03-16T05:48:42.507Z,67.93
2019-03-16T05:49:17.970Z,68.06
2019-03-16T05:49:53.481Z,67.64
2019-03-16T05:50:29.208Z,67.71
2019-03-16T05:51:04.637Z,67.72
2019-03-16T05:51:40.154Z,67.46
2019-03-16T05:52:15.923Z,67.46
2019-03-16T05:52:51.431Z,67.38
2019-03-16T05:53:26.900Z,67.38
2019-03-16T05:54:02.336Z,67.57
2019-03-16T05:54:37.898Z,67.57
2019-03-16T05:55:13.710Z,67.43
2019-03-16T05:55:49.241Z,67.46
2019-03-16T05:56:24.769Z,67.22
2019-03-16T05:57:00.206Z,67.02
2019-03-16T05:57:35.988Z,66.98
2019-03-16T05:58:11.430Z,66.98
2019-03-16T05:58:47.537Z,67.19
2019-03-16T05:59:22.985Z,67.07
2019-03-16T05:59:58.447Z,67.12
2019-03-16T06:00:34.664Z,67.18
2019-03-16T06:01:10.118Z,67.19
2019-03-16T06:01:45.943Z,67.03
2019-03-16T06:02:21.404Z,67.18
2019-03-16T06:02:57.520Z,66.78
2019-03-16T06:03:33.364Z,66.78
2019-03-16T06:04:08.813Z,66.65
2019-03-16T06:04:44.266Z,66.65
2019-03-16T06:05:19.721Z,66.66
2019-03-16T06:05:55.159Z,66.96
2019-03-16T06:06:30.694Z,67.44
2019-03-16T06:07:06.120Z,67.44
2019-03-16T06:07:41.552Z,67.28
2019-03-16T06:08:17.010Z,66.95
2019-03-16T06:08:52.780Z,67.08
2019-03-16T06:09:28.201Z,67.21
2019-03-16T06:10:04.267Z,67.16
2019-03-16T06:10:39.993Z,67.16
2019-03-16T06:11:15.785Z,67.06
2019-03-16T06:11:51.725Z,66.99
2019-03-16T06:12:27.162Z,67.31
2019-03-16T06:13:02.584Z,67.33
2019-03-16T06:13:38.038Z,67.35
2019-03-16T06:14:13.456Z,67.45
2019-03-16T06:14:48.906Z,67.65
2019-03-16T06:15:24.325Z,67.45
2019-03-16T06:15:59.776Z,67.46
2019-03-16T06:16:35.529Z,67.59
2019-03-16T06:17:10.933Z,67.79
2019-03-16T06:17:46.359Z,67.79
2019-03-16T06:18:21.790Z,67.35
2019-03-16T06:18:57.214Z,67.35
2019-03-16T06:19:33.343Z,67.79
2019-03-16T06:20:09.483Z,67.83
2019-03-16T06:20:45.243Z,67.77
2019-03-16T06:21:20.713Z,67.89
2019-03-16T06:21:56.511Z,68.04
2019-03-16T06:22:31.939Z,68.07
2019-03-16T06:23:07.469Z,68.07
2019-03-16T06:23:43.535Z,68.15
2019-03-16T06:24:19.396Z,68.41
2019-03-16T06:24:55.954Z,68.57
2019-03-16T06:25:31.467Z,68.60
2019-03-16T06:26:06.927Z,68.72
2019-03-16T06:26:42.708Z,69.01
2019-03-16T06:27:18.154Z,69.18
2019-03-16T06:27:54.166Z,69.52
2019-03-16T06:28:29.605Z,69.91
2019-03-16T06:29:05.367Z,70.27
2019-03-16T06:29:40.797Z,70.27
2019-03-16T06:30:16.879Z,70.82
2019-03-16T06:30:52.747Z,70.82
2019-03-16T06:31:28.633Z,71.41
2019-03-16T06:32:04.419Z,71.44
2019-03-16T06:32:40.165Z,71.63
2019-03-16T06:33:15.612Z,71.97
2019-03-16T06:33:51.439Z,72.14
2019-03-16T06:34:27.178Z,72.29
2019-03-16T06:35:03.087Z,72.54
2019-03-16T06:35:38.809Z,72.54
2019-03-16T06:36:14.261Z,72.64
2019-03-16T06:36:50.140Z,72.92
2019-03-16T06:37:25.907Z,73.45
2019-03-16T06:38:02.129Z,73.81
2019-03-16T06:38:37.875Z,73.81
2019-03-16T06:39:13.617Z,73.89
2019-03-16T06:39:49.492Z,73.93
2019-03-16T06:40:25.437Z,74.33
2019-03-16T06:41:00.928Z,74.51
2019-03-16T06:41:37.089Z,74.41
2019-03-16T06:42:13.480Z,74.60
2019-03-16T06:42:49.334Z,74.77
2019-03-16T06:43:25.096Z,75.16
2019-03-16T06:44:00.560Z,75.28
2019-03-16T06:44:36.318Z,75.91
2019-03-16T06:45:12.161Z,75.91
2019-03-16T06:45:48.089Z,76.02
2019-03-16T06:46:24.437Z,76.24
2019-03-16T06:46:59.893Z,76.39
2019-03-16T06:47:35.728Z,76.60
2019-03-16T06:48:11.629Z,76.69
2019-03-16T06:48:47.747Z,76.85
2019-03-16T06:49:23.502Z,76.69
2019-03-16T06:49:59.620Z,76.92
2019-03-16T06:50:35.791Z,77.16
2019-03-16T06:51:12.042Z,77.16
2019-03-16T06:51:48.297Z,77.48
2019-03-16T06:52:25.297Z,77.76
2019-03-16T06:53:01.185Z,77.90
2019-03-16T06:53:37.086Z,78.24
2019-03-16T06:54:13.361Z,78.27
2019-03-16T06:54:49.913Z,78.50
2019-03-16T06:55:25.351Z,78.58
2019-03-16T06:56:01.882Z,78.98
2019-03-16T06:56:37.651Z,78.75
2019-03-16T06:57:13.118Z,78.67
2019-03-16T06:57:49.276Z,78.74
2019-03-16T06:58:25.067Z,78.68
2019-03-16T06:59:00.521Z,78.71
2019-03-16T06:59:36.290Z,78.56
2019-03-16T07:00:12.859Z,78.46
2019-03-16T07:00:48.708Z,78.13
2019-03-16T07:01:24.665Z,78.25
2019-03-16T07:02:00.219Z,78.25
2019-03-16T07:02:36.086Z,77.69
2019-03-16T07:03:13.108Z,77.69
2019-03-16T07:03:48.883Z,77.53
2019-03-16T07:04:24.930Z,77.29
2019-03-16T07:05:00.711Z,76.94
2019-03-16T07:05:38.674Z,76.70
2019-03-16T07:06:15.379Z,76.66
2019-03-16T07:06:50.992Z,76.54
2019-03-16T07:07:26.538Z,76.20
2019-03-16T07:08:02.608Z,75.92
2019-03-16T07:08:38.754Z,75.86
2019-03-16T07:09:14.553Z,75.85
2019-03-16T07:09:50.529Z,76.02
2019-03-16T07:10:26.033Z,75.65
2019-03-16T07:11:01.464Z,75.63
2019-03-16T07:11:37.240Z,75.47
2019-03-16T07:12:13.001Z,75.16
2019-03-16T07:12:49.339Z,75.19
2019-03-16T07:13:24.762Z,74.77
2019-03-16T07:14:00.519Z,74.37
2019-03-16T07:14:36.045Z,74.22
2019-03-16T07:15:11.498Z,74.33
2019-03-16T07:15:47.031Z,74.40
2019-03-16T07:16:22.994Z,74.43
2019-03-16T07:17:02.420Z,74.19
2019-03-16T07:17:35.678Z,74.01
2019-03-16T07:18:11.161Z,73.77
2019-03-16T07:18:58.400Z,73.80
2019-03-16T07:19:24.111Z,73.79
2019-03-16T07:19:59.549Z,73.57
2019-03-16T07:20:34.991Z,73.55
2019-03-16T07:21:10.733Z,73.63
2019-03-16T07:21:46.489Z,73.51
2019-03-16T07:22:22.665Z,73.52
2019-03-16T07:22:58.108Z,73.25
2019-03-16T07:23:34.204Z,73.22
2019-03-16T07:24:10.066Z,73.29
2019-03-16T07:24:46.057Z,73.17
2019-03-16T07:25:21.508Z,72.94
2019-03-16T07:25:57.585Z,72.67
2019-03-16T07:26:33.125Z,72.84
2019-03-16T07:27:08.558Z,72.79
2019-03-16T07:27:43.981Z,72.92
2019-03-16T07:28:19.806Z,72.75
2019-03-16T07:28:55.606Z,72.75
2019-03-16T07:29:31.866Z,72.47
2019-03-16T07:30:07.453Z,72.28
2019-03-16T07:30:42.865Z,72.12
2019-03-16T07:31:18.305Z,71.92
2019-03-16T07:31:53.741Z,72.19
2019-03-16T07:32:29.507Z,72.04
2019-03-16T07:33:05.251Z,72.04
2019-03-16T07:33:40.714Z,71.81
2019-03-16T07:34:16.686Z,71.71
2019-03-16T07:34:52.672Z,71.63
2019-03-16T07:35:28.195Z,71.38
2019-03-16T07:36:03.984Z,71.30
2019-03-16T07:36:39.422Z,71.24
2019-03-16T07:37:14.855Z,71.34
2019-03-16T07:37:50.461Z,71.49
2019-03-16T07:38:26.719Z,71.23
2019-03-16T07:39:02.152Z,71.33
2019-03-16T07:39:37.579Z,71.59
2019-03-16T07:40:13.020Z,71.46